This is the latest recevied weather packets stored in our database for station/object KQ4NAL. If no packets are shown the sender has not sent any weather packets the latest 10 day(s).
| Time | Temp. | Humidity | Pressure | Rain* | Wind** | Luminosity | Snow |
|---|---|---|---|---|---|---|---|
| 1777747329 | 13.33° C | 45% | 1018.3 hPa | 0 mm | - | 381 W/m² | - |
| 1777747026 | 12.22° C | 49% | 1018.2 hPa | 0 mm | - | 941 W/m² | - |
| 1777746722 | 12.22° C | 45% | 1018.2 hPa | 0 mm | - | 287 W/m² | - |
| 1777746418 | 11.67° C | 49% | 1018.3 hPa | 0 mm | - | 298 W/m² | - |
| 1777746113 | 11.67° C | 49% | 1018.2 hPa | 0 mm | - | 207 W/m² | - |
| 1777745811 | 12.78° C | 49% | 1018.1 hPa | 0 mm | - | 144 W/m² | - |
| 1777745510 | 12.22° C | 48% | 1018.4 hPa | 0 mm | - | 278 W/m² | - |
| 1777745207 | 12.22° C | 44% | 1018.4 hPa | 0 mm | - | 417 W/m² | - |
| 1777744904 | 12.22° C | 48% | 1018.4 hPa | 0 mm | - | 396 W/m² | - |
| 1777744603 | 11.67° C | 49% | 1018.5 hPa | 0 mm | - | 331 W/m² | - |
| 1777744299 | 11.67° C | 48% | 1018.5 hPa | 0 mm | - | 336 W/m² | - |
| 1777743996 | 11.67° C | 48% | 1018.6 hPa | 0 mm | - | 260 W/m² | - |
| 1777743692 | 11.67° C | 50% | 1018.7 hPa | 0 mm | - | 279 W/m² | - |
| 1777743390 | 11.11° C | 51% | 1018.4 hPa | 0 mm | - | 264 W/m² | - |
| 1777743088 | 11.11° C | 50% | 1018.5 hPa | 0 mm | - | 223 W/m² | - |
| 1777742785 | 11.67° C | 49% | 1018.6 hPa | 0 mm | - | 206 W/m² | - |
| 1777742481 | 11.67° C | 51% | 1018.5 hPa | 0 mm | - | 504 W/m² | - |
| 1777742177 | 12.78° C | 49% | 1018.6 hPa | 0 mm | - | 303 W/m² | - |
| 1777741874 | 13.33° C | 51% | 1018.6 hPa | 0 mm | - | 1003 W/m² | - |
| 1777741571 | 11.67° C | 55% | 1018.8 hPa | 0 mm | - | 903 W/m² | - |
| 1777741268 | 11.67° C | 52% | 1018.6 hPa | 0 mm | - | 170 W/m² | - |
| 1777740964 | 12.22° C | 52% | 1018.7 hPa | 0 mm | - | 310 W/m² | - |
| 1777740661 | 11.11° C | 54% | 1019 hPa | 0 mm | - | 822 W/m² | - |
| 1777740357 | 11.11° C | 52% | 1018.8 hPa | 0 mm | - | 256 W/m² | - |
| 1777740054 | 11.11° C | 52% | 1019.1 hPa | 0 mm | - | 428 W/m² | - |
* Rain latest hour (hover to see other rain measurements)
** Current wind speed in m/s (hover to see current wind gust speed)